Time;durP1;ratioP1;P1;durP2;ratioP2;P2;SDS_P1;SDS_P2;PMS_P1;PMS_P2;Temp;Humidity;BMP_temperature;BMP_pressure;BME280_temperature;BME280_humidity;BME280_pressure;Samples;Min_cycle;Max_cycle;Signal;HPM_P1;HPM_P2
2023/06/17 00:00:42;;;;;;;;;;;19.80;76.60;;;;;;7336690;19;109902;-58
2023/06/17 00:03:09;;;;;;;;;;;19.80;75.60;;;;;;7333579;19;108423;-58
2023/06/17 00:05:37;;;;;;;;;;;19.80;74.70;;;;;;7329666;19;111044;-58
2023/06/17 00:08:05;;;;;;;;;;;19.90;75.20;;;;;;7335171;19;111380;-58
2023/06/17 00:10:32;;;;;;;;;;;19.90;74.80;;;;;;7333075;19;108412;-60
2023/06/17 00:13:00;;;;;;;;;;;19.80;76.10;;;;;;7335408;19;114333;-58
2023/06/17 00:15:28;;;;;;;;;;;19.70;77.00;;;;;;7330623;19;110491;-59
2023/06/17 00:17:56;;;;;;;;;;;19.50;79.60;;;;;;7329527;19;109219;-60
2023/06/17 00:20:32;;;;;;;;;;;19.30;80.20;;;;;;7327735;19;119640;-57
2023/06/17 00:23:00;;;;;;;;;;;19.20;79.70;;;;;;7337498;19;111520;-58
2023/06/17 00:25:27;;;;;;;;;;;19.20;79.90;;;;;;7335287;19;108249;-57
2023/06/17 00:27:54;;;;;;;;;;;19.10;79.20;;;;;;7331901;19;112964;-58
2023/06/17 00:30:21;;;;;;;;;;;19.20;78.70;;;;;;7333589;19;108622;-58
2023/06/17 00:32:49;;;;;;;;;;;19.10;79.00;;;;;;7329679;19;109612;-63
2023/06/17 00:35:16;;;;;;;;;;;19.10;79.00;;;;;;7328487;19;113158;-58
2023/06/17 00:37:43;;;;;;;;;;;19.00;78.50;;;;;;7333343;19;109008;-59
2023/06/17 00:40:11;;;;;;;;;;;19.00;78.20;;;;;;7332550;19;108491;-57
2023/06/17 00:42:39;;;;;;;;;;;19.00;78.60;;;;;;7338868;19;110359;-58
2023/06/17 00:45:07;;;;;;;;;;;18.90;78.90;;;;;;7331832;19;110014;-57
2023/06/17 00:47:34;;;;;;;;;;;18.80;78.90;;;;;;7333540;19;109554;-58
2023/06/17 00:50:02;;;;;;;;;;;18.80;79.10;;;;;;7328615;19;109162;-58
2023/06/17 00:52:29;;;;;;;;;;;18.80;77.90;;;;;;7332509;19;109071;-58
2023/06/17 00:55:09;;;;;;;;;;;18.90;78.00;;;;;;7332154;19;110949;-59
2023/06/17 00:57:37;;;;;;;;;;;18.80;77.70;;;;;;7330434;19;109033;-58
2023/06/17 01:00:14;;;;;;;;;;;18.80;78.60;;;;;;7335058;19;109035;-57
2023/06/17 01:02:44;;;;;;;;;;;18.70;81.10;;;;;;7332351;19;109457;-59
2023/06/17 01:05:14;;;;;;;;;;;18.50;80.70;;;;;;7337417;19;108239;-58
2023/06/17 01:07:57;;;;;;;;;;;18.40;80.60;;;;;;7332821;19;110537;-56
2023/06/17 01:10:32;;;;;;;;;;;18.40;80.80;;;;;;7326069;19;108938;-58
2023/06/17 01:13:00;;;;;;;;;;;18.40;80.70;;;;;;7332767;19;108931;-58
2023/06/17 01:15:27;;;;;;;;;;;18.40;80.20;;;;;;7332237;19;111124;-58
2023/06/17 01:17:54;;;;;;;;;;;18.40;80.30;;;;;;7327878;19;108877;-58
2023/06/17 01:20:22;;;;;;;;;;;18.40;80.70;;;;;;7331831;19;110427;-57
2023/06/17 01:22:52;;;;;;;;;;;18.30;80.20;;;;;;7329006;19;109142;-58
2023/06/17 01:25:20;;;;;;;;;;;18.30;80.40;;;;;;7332239;19;108624;-56
2023/06/17 01:27:49;;;;;;;;;;;18.30;81.30;;;;;;7335878;19;108674;-58
2023/06/17 01:30:16;;;;;;;;;;;18.20;82.60;;;;;;7332630;19;109211;-58
2023/06/17 01:32:43;;;;;;;;;;;18.00;83.40;;;;;;7327428;19;110958;-58
2023/06/17 01:35:13;;;;;;;;;;;17.90;83.20;;;;;;7331754;19;110291;-58
2023/06/17 01:37:42;;;;;;;;;;;17.90;82.60;;;;;;7335123;19;110191;-58
2023/06/17 01:40:12;;;;;;;;;;;17.90;83.70;;;;;;7335844;19;109320;-57
2023/06/17 01:42:41;;;;;;;;;;;17.80;85.20;;;;;;7336434;19;109792;-58
2023/06/17 01:45:09;;;;;;;;;;;17.70;85.80;;;;;;7337489;19;110438;-58
2023/06/17 01:47:36;;;;;;;;;;;17.60;86.80;;;;;;7336769;19;109699;-58
2023/06/17 01:50:04;;;;;;;;;;;17.60;86.70;;;;;;7340044;19;110288;-59
2023/06/17 01:52:32;;;;;;;;;;;17.60;87.20;;;;;;7334898;19;108877;-58
2023/06/17 01:54:59;;;;;;;;;;;17.50;88.60;;;;;;7338483;19;109140;-58
2023/06/17 01:57:27;;;;;;;;;;;17.40;88.30;;;;;;7336118;19;108755;-57
2023/06/17 01:59:54;;;;;;;;;;;17.40;87.70;;;;;;7337739;19;109318;-58
2023/06/17 02:02:22;;;;;;;;;;;17.40;89.10;;;;;;7336226;19;109861;-58
2023/06/17 02:04:50;;;;;;;;;;;17.40;87.60;;;;;;7335758;19;108998;-57
2023/06/17 02:07:18;;;;;;;;;;;17.30;87.40;;;;;;7338550;19;110278;-57
2023/06/17 02:09:45;;;;;;;;;;;17.40;87.70;;;;;;7340301;19;110606;-58
2023/06/17 02:12:12;;;;;;;;;;;17.40;87.50;;;;;;7348215;19;109677;-58
2023/06/17 02:14:40;;;;;;;;;;;17.30;87.20;;;;;;7334386;19;110758;-58
2023/06/17 02:17:08;;;;;;;;;;;17.30;86.90;;;;;;7337273;19;110194;-58
2023/06/17 02:19:35;;;;;;;;;;;17.30;87.50;;;;;;7338321;19;109034;-58
2023/06/17 02:22:02;;;;;;;;;;;17.20;90.10;;;;;;7337817;19;109127;-57
2023/06/17 02:24:30;;;;;;;;;;;17.10;88.90;;;;;;7336763;19;112432;-58
2023/06/17 02:26:57;;;;;;;;;;;17.10;88.50;;;;;;7338172;19;108560;-58
2023/06/17 02:29:25;;;;;;;;;;;17.10;87.50;;;;;;7337104;19;109680;-58
2023/06/17 02:31:52;;;;;;;;;;;17.10;87.20;;;;;;7333150;19;110094;-58
2023/06/17 02:34:19;;;;;;;;;;;17.10;87.60;;;;;;7338247;19;110692;-57
2023/06/17 02:36:46;;;;;;;;;;;17.10;87.30;;;;;;7336306;19;109330;-60
2023/06/17 02:39:14;;;;;;;;;;;17.00;88.00;;;;;;7334410;19;109302;-61
2023/06/17 02:41:41;;;;;;;;;;;17.00;89.70;;;;;;7333137;19;110619;-63
2023/06/17 02:44:08;;;;;;;;;;;16.80;90.90;;;;;;7336972;19;109851;-59
2023/06/17 02:46:35;;;;;;;;;;;16.70;90.80;;;;;;7334790;19;108493;-60
2023/06/17 02:49:03;;;;;;;;;;;16.60;90.80;;;;;;7334272;19;110142;-58
2023/06/17 02:51:30;;;;;;;;;;;16.60;90.20;;;;;;7339023;19;108970;-58
2023/06/17 02:53:57;;;;;;;;;;;16.60;90.80;;;;;;7336456;19;109369;-57
2023/06/17 02:56:26;;;;;;;;;;;16.60;90.70;;;;;;7337525;19;109067;-59
2023/06/17 02:58:54;;;;;;;;;;;16.60;90.20;;;;;;7327172;19;112407;-56
2023/06/17 03:01:21;;;;;;;;;;;16.60;90.10;;;;;;7324951;19;109581;-58
2023/06/17 03:03:49;;;;;;;;;;;16.60;90.20;;;;;;7330925;19;109077;-57
2023/06/17 03:06:16;;;;;;;;;;;16.60;90.10;;;;;;7328759;19;110668;-59
2023/06/17 03:08:43;;;;;;;;;;;16.60;90.10;;;;;;7331379;19;109123;-57
2023/06/17 03:11:10;;;;;;;;;;;16.60;90.10;;;;;;7329130;19;109722;-58
2023/06/17 03:13:37;;;;;;;;;;;16.70;89.00;;;;;;7329098;19;111038;-58
2023/06/17 03:16:05;;;;;;;;;;;16.70;89.60;;;;;;7337725;19;109611;-58
2023/06/17 03:18:32;;;;;;;;;;;16.80;90.10;;;;;;7338308;19;109364;-58
2023/06/17 03:21:00;;;;;;;;;;;16.70;90.70;;;;;;7334397;19;111025;-58
2023/06/17 03:23:28;;;;;;;;;;;16.70;90.80;;;;;;7337107;19;108519;-58
2023/06/17 03:25:55;;;;;;;;;;;16.60;90.90;;;;;;7334433;19;108611;-58
2023/06/17 03:28:22;;;;;;;;;;;16.60;90.90;;;;;;7333947;19;111294;-58
2023/06/17 03:30:49;;;;;;;;;;;16.70;91.00;;;;;;7332188;19;111092;-58
2023/06/17 03:33:16;;;;;;;;;;;16.70;90.50;;;;;;7336599;19;109866;-56
2023/06/17 03:35:43;;;;;;;;;;;16.70;90.40;;;;;;7336232;19;109225;-57
2023/06/17 03:38:10;;;;;;;;;;;16.80;90.40;;;;;;7338065;19;109841;-58
2023/06/17 03:40:37;;;;;;;;;;;16.70;90.60;;;;;;7336413;19;109626;-58
2023/06/17 03:43:05;;;;;;;;;;;16.80;90.50;;;;;;7330130;19;110595;-57
2023/06/17 03:45:32;;;;;;;;;;;16.80;90.40;;;;;;7334769;19;110557;-58
2023/06/17 03:47:59;;;;;;;;;;;16.90;90.50;;;;;;7335624;19;109489;-58
2023/06/17 03:50:26;;;;;;;;;;;16.90;90.40;;;;;;7332011;19;109090;-58
2023/06/17 03:52:54;;;;;;;;;;;17.00;90.20;;;;;;7334866;19;110633;-57
2023/06/17 03:55:22;;;;;;;;;;;17.10;89.80;;;;;;7331322;19;109132;-58
2023/06/17 03:57:49;;;;;;;;;;;17.10;89.30;;;;;;7331941;19;108970;-58
2023/06/17 04:00:16;;;;;;;;;;;17.10;89.60;;;;;;7335498;19;109006;-57
2023/06/17 04:02:45;;;;;;;;;;;17.20;89.60;;;;;;7332697;19;109097;-57
2023/06/17 04:05:13;;;;;;;;;;;17.20;89.10;;;;;;7329045;19;110593;-58
2023/06/17 04:07:40;;;;;;;;;;;17.30;89.00;;;;;;7335445;19;110385;-58
2023/06/17 04:10:10;;;;;;;;;;;17.40;88.70;;;;;;7334478;19;108960;-56
2023/06/17 04:12:41;;;;;;;;;;;17.30;89.30;;;;;;7335331;19;110310;-58
2023/06/17 04:15:08;;;;;;;;;;;17.40;88.90;;;;;;7329163;19;110891;-58
2023/06/17 04:17:36;;;;;;;;;;;17.50;88.70;;;;;;7332627;19;110889;-56
2023/06/17 04:20:10;;;;;;;;;;;17.50;88.40;;;;;;7333168;19;108589;-58
2023/06/17 04:22:39;;;;;;;;;;;17.50;87.70;;;;;;7336917;19;111031;-58
2023/06/17 04:25:07;;;;;;;;;;;17.50;89.20;;;;;;7334662;19;108686;-57
2023/06/17 04:27:34;;;;;;;;;;;17.50;89.30;;;;;;7332171;19;110298;-57
2023/06/17 04:30:02;;;;;;;;;;;17.60;88.40;;;;;;7332410;19;108662;-58
2023/06/17 04:32:29;;;;;;;;;;;17.70;88.10;;;;;;7330251;19;110741;-58
2023/06/17 04:34:56;;;;;;;;;;;17.70;88.50;;;;;;7332950;19;110449;-57
2023/06/17 04:37:25;;;;;;;;;;;17.70;88.70;;;;;;7328335;19;115997;-56
2023/06/17 04:39:53;;;;;;;;;;;17.50;89.10;;;;;;7333548;19;108995;-58
2023/06/17 04:42:20;;;;;;;;;;;17.40;89.90;;;;;;7334924;19;109544;-58
2023/06/17 04:44:48;;;;;;;;;;;17.40;90.10;;;;;;7336981;19;110547;-57
2023/06/17 04:47:16;;;;;;;;;;;17.40;90.40;;;;;;7329168;19;110712;-57
2023/06/17 04:49:44;;;;;;;;;;;17.30;90.30;;;;;;7331995;19;110942;-57
2023/06/17 04:52:11;;;;;;;;;;;17.40;90.30;;;;;;7327803;19;109046;-57
2023/06/17 04:54:38;;;;;;;;;;;17.40;90.20;;;;;;7331792;19;109388;-58
2023/06/17 04:57:06;;;;;;;;;;;17.50;90.20;;;;;;7329130;19;108832;-58
2023/06/17 04:59:33;;;;;;;;;;;17.60;90.00;;;;;;7331979;19;109116;-58
2023/06/17 05:02:00;;;;;;;;;;;17.70;90.00;;;;;;7328980;19;110098;-57
2023/06/17 05:04:27;;;;;;;;;;;17.80;90.10;;;;;;7335079;19;109165;-56
2023/06/17 05:06:54;;;;;;;;;;;17.90;90.00;;;;;;7324433;19;109739;-58
2023/06/17 05:09:22;;;;;;;;;;;18.00;90.10;;;;;;7328517;19;109907;-58
2023/06/17 05:11:49;;;;;;;;;;;18.10;90.30;;;;;;7338569;19;108788;-57
2023/06/17 05:14:16;;;;;;;;;;;18.10;90.20;;;;;;7338296;19;110393;-57
2023/06/17 05:16:43;;;;;;;;;;;18.20;90.00;;;;;;7336797;19;109564;-58
2023/06/17 05:19:11;;;;;;;;;;;18.20;90.10;;;;;;7338566;19;109702;-56
2023/06/17 05:21:38;;;;;;;;;;;18.20;89.90;;;;;;7337191;19;109567;-57
2023/06/17 05:24:05;;;;;;;;;;;18.40;90.10;;;;;;7335901;19;110062;-58
2023/06/17 05:26:32;;;;;;;;;;;18.50;89.90;;;;;;7343649;19;109946;-58
2023/06/17 05:28:59;;;;;;;;;;;18.60;89.80;;;;;;7336382;19;111881;-58
2023/06/17 05:31:26;;;;;;;;;;;18.60;90.00;;;;;;7338025;19;108901;-58
2023/06/17 05:33:53;;;;;;;;;;;18.70;90.00;;;;;;7338350;19;109234;-58
2023/06/17 05:36:20;;;;;;;;;;;18.90;89.70;;;;;;7338477;19;109474;-59
2023/06/17 05:38:51;;;;;;;;;;;19.00;89.90;;;;;;7335569;19;109726;-58
2023/06/17 05:41:18;;;;;;;;;;;19.10;90.00;;;;;;7336618;19;109456;-57
2023/06/17 05:43:46;;;;;;;;;;;19.30;89.20;;;;;;7337073;19;109586;-59
2023/06/17 05:46:13;;;;;;;;;;;19.30;89.40;;;;;;7338175;19;109040;-59
2023/06/17 05:48:40;;;;;;;;;;;19.40;88.50;;;;;;7339358;19;109408;-59
2023/06/17 05:51:07;;;;;;;;;;;19.40;88.40;;;;;;7336162;19;108885;-59
2023/06/17 05:53:34;;;;;;;;;;;19.50;87.70;;;;;;7331428;19;109430;-59
2023/06/17 05:56:01;;;;;;;;;;;19.60;87.80;;;;;;7336981;19;108535;-59
2023/06/17 05:58:28;;;;;;;;;;;19.70;87.20;;;;;;7332294;19;110179;-59
2023/06/17 06:00:55;;;;;;;;;;;19.80;87.40;;;;;;7336405;19;110160;-59
2023/06/17 06:03:24;;;;;;;;;;;19.90;87.30;;;;;;7336604;19;110522;-59
2023/06/17 06:05:51;;;;;;;;;;;20.10;87.00;;;;;;7338597;19;110365;-59
2023/06/17 06:08:18;;;;;;;;;;;20.20;86.20;;;;;;7337385;19;109555;-59
2023/06/17 06:10:45;;;;;;;;;;;20.30;86.80;;;;;;7337105;19;109785;-60
2023/06/17 06:13:12;;;;;;;;;;;20.40;86.00;;;;;;7336984;19;111017;-59
2023/06/17 06:15:39;;;;;;;;;;;20.60;86.60;;;;;;7335278;19;110265;-59
2023/06/17 06:18:06;;;;;;;;;;;20.80;85.90;;;;;;7336975;19;109196;-59
2023/06/17 06:20:34;;;;;;;;;;;21.00;84.80;;;;;;7333481;19;112298;-58
2023/06/17 06:23:01;;;;;;;;;;;21.20;84.20;;;;;;7339206;19;108443;-59
2023/06/17 06:25:28;;;;;;;;;;;21.20;83.10;;;;;;7332900;19;111354;-58
2023/06/17 06:27:55;;;;;;;;;;;21.30;82.80;;;;;;7334162;19;109132;-59
2023/06/17 06:30:22;;;;;;;;;;;21.40;82.30;;;;;;7333243;19;109734;-59
2023/06/17 06:32:49;;;;;;;;;;;21.50;82.30;;;;;;7339042;19;114198;-58
2023/06/17 06:35:16;;;;;;;;;;;21.60;81.40;;;;;;7334784;19;109352;-59
2023/06/17 06:37:44;;;;;;;;;;;21.60;81.50;;;;;;7337739;19;109896;-58
2023/06/17 06:40:11;;;;;;;;;;;21.70;83.00;;;;;;7330102;19;109173;-59
2023/06/17 06:42:38;;;;;;;;;;;21.90;82.60;;;;;;7335737;19;109416;-59
2023/06/17 06:45:06;;;;;;;;;;;22.10;82.60;;;;;;7334728;19;109649;-59
2023/06/17 06:47:33;;;;;;;;;;;22.20;82.30;;;;;;7335196;19;111931;-58
2023/06/17 06:50:00;;;;;;;;;;;22.40;81.60;;;;;;7332247;19;109851;-59
2023/06/17 06:52:27;;;;;;;;;;;22.50;82.60;;;;;;7337308;19;110545;-59
2023/06/17 06:54:54;;;;;;;;;;;22.60;80.40;;;;;;7333724;19;108966;-60
2023/06/17 06:57:21;;;;;;;;;;;22.70;80.50;;;;;;7334379;19;110572;-58
2023/06/17 06:59:48;;;;;;;;;;;22.80;78.00;;;;;;7333643;19;110604;-60
2023/06/17 07:02:18;;;;;;;;;;;22.90;78.70;;;;;;7333360;19;110433;-59
2023/06/17 07:04:45;;;;;;;;;;;22.90;78.60;;;;;;7331074;19;109520;-58
2023/06/17 07:07:13;;;;;;;;;;;22.90;76.40;;;;;;7333979;19;109882;-59
2023/06/17 07:09:40;;;;;;;;;;;22.90;76.50;;;;;;7333663;19;110186;-59
2023/06/17 07:12:07;;;;;;;;;;;23.10;77.00;;;;;;7331469;19;112761;-58
2023/06/17 07:14:34;;;;;;;;;;;23.10;76.90;;;;;;7337459;19;109717;-59
2023/06/17 07:17:01;;;;;;;;;;;23.20;76.30;;;;;;7334537;19;108948;-58
2023/06/17 07:19:29;;;;;;;;;;;23.40;76.20;;;;;;7331378;19;109909;-61
2023/06/17 07:21:56;;;;;;;;;;;23.50;76.40;;;;;;7335222;19;110823;-59
2023/06/17 07:24:24;;;;;;;;;;;23.60;76.10;;;;;;7335444;19;109535;-60
2023/06/17 07:26:54;;;;;;;;;;;23.60;74.70;;;;;;7331757;19;110279;-59
2023/06/17 07:29:21;;;;;;;;;;;23.60;75.70;;;;;;7335639;19;109195;-59
2023/06/17 07:31:49;;;;;;;;;;;23.70;75.80;;;;;;7334993;19;109129;-59
2023/06/17 07:34:16;;;;;;;;;;;23.80;74.40;;;;;;7324824;19;109393;-58
2023/06/17 07:36:43;;;;;;;;;;;23.80;74.90;;;;;;7336828;19;110415;-59
2023/06/17 07:39:10;;;;;;;;;;;23.90;75.30;;;;;;7332199;19;110525;-59
2023/06/17 07:41:37;;;;;;;;;;;24.00;75.10;;;;;;7334849;19;109002;-59
2023/06/17 07:44:06;;;;;;;;;;;24.10;75.00;;;;;;7326710;19;110282;-59
2023/06/17 07:46:33;;;;;;;;;;;24.30;74.70;;;;;;7331137;19;113202;-59
2023/06/17 07:49:00;;;;;;;;;;;24.40;74.30;;;;;;7335948;19;108723;-59
2023/06/17 07:51:27;;;;;;;;;;;24.50;72.80;;;;;;7333686;19;111285;-59
2023/06/17 07:53:54;;;;;;;;;;;24.60;74.50;;;;;;7334522;19;112999;-60
2023/06/17 07:56:25;;;;;;;;;;;24.70;73.20;;;;;;7333494;19;108718;-59
2023/06/17 07:58:52;;;;;;;;;;;24.80;72.50;;;;;;7337307;19;109091;-59
2023/06/17 08:01:19;;;;;;;;;;;24.80;72.20;;;;;;7337598;19;108835;-59
2023/06/17 08:03:46;;;;;;;;;;;25.00;71.50;;;;;;7327842;19;110600;-59
2023/06/17 08:06:13;;;;;;;;;;;25.10;70.60;;;;;;7336959;19;110118;-59
2023/06/17 08:08:41;;;;;;;;;;;25.10;70.00;;;;;;7335458;19;109208;-59
2023/06/17 08:11:08;;;;;;;;;;;25.20;67.20;;;;;;7332346;19;108995;-59
2023/06/17 08:13:35;;;;;;;;;;;25.30;69.50;;;;;;7336305;19;109823;-59
2023/06/17 08:16:02;;;;;;;;;;;25.30;68.60;;;;;;7334706;19;108782;-59
2023/06/17 08:18:30;;;;;;;;;;;25.40;68.20;;;;;;7330844;19;110132;-59
2023/06/17 08:20:57;;;;;;;;;;;25.40;67.30;;;;;;7339258;19;109833;-59
2023/06/17 08:23:26;;;;;;;;;;;25.50;67.00;;;;;;7326582;19;110153;-59
2023/06/17 08:25:53;;;;;;;;;;;25.60;67.60;;;;;;7330540;19;110065;-57
2023/06/17 08:28:22;;;;;;;;;;;25.70;67.80;;;;;;7332282;19;109016;-59
2023/06/17 08:30:51;;;;;;;;;;;25.90;66.20;;;;;;7329254;19;109273;-59
2023/06/17 08:33:21;;;;;;;;;;;26.00;66.70;;;;;;7334638;19;110359;-59
2023/06/17 08:35:48;;;;;;;;;;;26.00;62.10;;;;;;7328886;19;109986;-59
2023/06/17 08:38:15;;;;;;;;;;;25.90;63.50;;;;;;7334598;19;108929;-59
2023/06/17 08:40:44;;;;;;;;;;;25.90;62.60;;;;;;7331250;19;110984;-59
2023/06/17 08:43:13;;;;;;;;;;;25.90;61.00;;;;;;7338627;19;108999;-59
2023/06/17 08:45:41;;;;;;;;;;;26.00;63.10;;;;;;7325507;19;109870;-59
2023/06/17 08:48:08;;;;;;;;;;;26.10;64.30;;;;;;7331528;19;108801;-59
2023/06/17 08:50:36;;;;;;;;;;;26.20;62.70;;;;;;7332027;19;108664;-59
2023/06/17 08:53:04;;;;;;;;;;;26.30;63.00;;;;;;7330600;19;109874;-59
2023/06/17 08:55:31;;;;;;;;;;;26.30;62.10;;;;;;7328434;19;111224;-59
2023/06/17 08:57:58;;;;;;;;;;;26.30;62.10;;;;;;7332278;19;109412;-58
2023/06/17 09:00:25;;;;;;;;;;;26.30;63.60;;;;;;7328081;19;109139;-59
2023/06/17 09:02:54;;;;;;;;;;;26.30;64.80;;;;;;7338179;19;110821;-60
2023/06/17 09:05:21;;;;;;;;;;;26.40;62.80;;;;;;7325624;19;109785;-59
2023/06/17 09:07:48;;;;;;;;;;;26.50;63.20;;;;;;7331662;19;108592;-59
2023/06/17 09:10:15;;;;;;;;;;;26.70;65.20;;;;;;7331159;19;108767;-59
2023/06/17 09:12:42;;;;;;;;;;;26.90;63.50;;;;;;7331563;19;109487;-59
2023/06/17 09:15:16;;;;;;;;;;;27.00;62.60;;;;;;7333076;19;109364;-59
2023/06/17 09:17:48;;;;;;;;;;;27.20;63.30;;;;;;7332003;19;108495;-63
2023/06/17 09:20:15;;;;;;;;;;;27.30;64.00;;;;;;7331728;19;109466;-59
2023/06/17 09:22:44;;;;;;;;;;;27.50;63.90;;;;;;7330160;19;109803;-59
2023/06/17 09:25:12;;;;;;;;;;;27.50;60.80;;;;;;7339022;19;109091;-59
2023/06/17 09:27:53;;;;;;;;;;;27.50;61.00;;;;;;7329369;19;109655;-59
2023/06/17 09:30:43;;;;;;;;;;;27.40;61.50;;;;;;7331325;19;110195;-59
2023/06/17 09:33:21;;;;;;;;;;;27.50;61.60;;;;;;7330060;19;112720;-59
2023/06/17 09:35:57;;;;;;;;;;;27.60;59.90;;;;;;7323688;19;109322;-59
2023/06/17 09:38:24;;;;;;;;;;;27.50;59.10;;;;;;7329134;19;108782;-59
2023/06/17 09:40:51;;;;;;;;;;;27.40;58.90;;;;;;7324613;19;110465;-58
2023/06/17 09:43:27;;;;;;;;;;;27.50;61.30;;;;;;7327658;19;108851;-59
2023/06/17 09:45:59;;;;;;;;;;;27.70;58.80;;;;;;7326808;19;109336;-59
2023/06/17 09:48:30;;;;;;;;;;;27.80;61.00;;;;;;7331870;19;111462;-59
2023/06/17 09:50:58;;;;;;;;;;;28.10;61.00;;;;;;7326841;19;111731;-59
2023/06/17 09:53:29;;;;;;;;;;;28.20;61.20;;;;;;7324866;19;109469;-59
2023/06/17 09:55:58;;;;;;;;;;;28.30;61.20;;;;;;7327314;19;109910;-59
2023/06/17 09:58:30;;;;;;;;;;;28.30;59.40;;;;;;7332488;19;109022;-59
2023/06/17 10:01:00;;;;;;;;;;;28.30;59.50;;;;;;7331796;19;109476;-59
2023/06/17 10:03:28;;;;;;;;;;;28.40;59.90;;;;;;7326364;19;108959;-60
2023/06/17 10:06:01;;;;;;;;;;;28.40;60.30;;;;;;7335655;19;108699;-60
2023/06/17 10:08:28;;;;;;;;;;;28.50;60.60;;;;;;7333400;19;109960;-60
2023/06/17 10:10:58;;;;;;;;;;;28.60;61.00;;;;;;7334364;19;109260;-59
2023/06/17 10:13:28;;;;;;;;;;;28.70;58.30;;;;;;7330099;19;110434;-59
2023/06/17 10:15:55;;;;;;;;;;;28.70;58.40;;;;;;7331801;19;110992;-59
2023/06/17 10:18:23;;;;;;;;;;;28.60;57.70;;;;;;7336800;19;108975;-59
2023/06/17 10:20:51;;;;;;;;;;;28.60;58.00;;;;;;7331967;19;110278;-60
2023/06/17 10:23:19;;;;;;;;;;;28.70;59.40;;;;;;7337609;19;110806;-60
2023/06/17 10:25:46;;;;;;;;;;;28.80;59.80;;;;;;7331462;19;111037;-60
2023/06/17 10:28:16;;;;;;;;;;;28.90;59.10;;;;;;7334208;19;109471;-60
2023/06/17 10:30:46;;;;;;;;;;;29.10;59.30;;;;;;7335935;19;109795;-60
2023/06/17 10:33:13;;;;;;;;;;;29.20;59.20;;;;;;7339193;19;112812;-60
2023/06/17 10:35:41;;;;;;;;;;;29.40;59.90;;;;;;7334354;19;110021;-60
2023/06/17 10:38:10;;;;;;;;;;;29.40;58.40;;;;;;7337228;19;108567;-60
2023/06/17 10:40:47;;;;;;;;;;;29.50;59.00;;;;;;7336080;19;110039;-60
2023/06/17 10:43:18;;;;;;;;;;;29.40;56.90;;;;;;7337196;19;110392;-60
2023/06/17 10:45:49;;;;;;;;;;;29.40;57.80;;;;;;7336214;19;110765;-60
2023/06/17 10:48:19;;;;;;;;;;;29.40;56.40;;;;;;7336754;19;109841;-61
2023/06/17 10:50:58;;;;;;;;;;;29.50;57.30;;;;;;7336351;19;108667;-60
2023/06/17 10:53:27;;;;;;;;;;;29.60;59.00;;;;;;7338334;19;108159;-60
2023/06/17 10:55:56;;;;;;;;;;;29.90;58.90;;;;;;7341316;19;109484;-60
2023/06/17 10:58:28;;;;;;;;;;;30.10;56.90;;;;;;7337583;19;110654;-60
2023/06/17 11:00:59;;;;;;;;;;;30.10;57.30;;;;;;7337146;19;109774;-60
2023/06/17 11:03:27;;;;;;;;;;;30.10;55.50;;;;;;7335011;19;109084;-60
2023/06/17 11:05:58;;;;;;;;;;;30.10;58.00;;;;;;7336323;19;109459;-60
2023/06/17 11:08:26;;;;;;;;;;;30.10;56.40;;;;;;7335282;19;109146;-60
2023/06/17 11:11:14;;;;;;;;;;;30.20;57.80;;;;;;7336713;19;108972;-60
2023/06/17 11:13:42;;;;;;;;;;;30.30;59.30;;;;;;7336434;19;108934;-60
2023/06/17 11:16:10;;;;;;;;;;;30.50;59.20;;;;;;7341972;19;109514;-60
2023/06/17 11:18:38;;;;;;;;;;;30.80;58.40;;;;;;7336243;19;108586;-60
2023/06/17 11:21:06;;;;;;;;;;;30.90;56.50;;;;;;7334185;19;109990;-61
2023/06/17 11:23:34;;;;;;;;;;;31.00;56.40;;;;;;7336660;19;108405;-60
2023/06/17 11:26:01;;;;;;;;;;;31.20;57.20;;;;;;7332323;19;108835;-60
2023/06/17 11:28:30;;;;;;;;;;;31.30;57.60;;;;;;7337492;19;109117;-60
2023/06/17 11:30:57;;;;;;;;;;;31.40;57.40;;;;;;7333517;19;109925;-60
2023/06/17 11:33:25;;;;;;;;;;;31.50;56.80;;;;;;7336513;19;111416;-60
2023/06/17 11:35:54;;;;;;;;;;;31.50;55.30;;;;;;7333967;19;109494;-60
2023/06/17 11:38:22;;;;;;;;;;;31.50;56.00;;;;;;7340486;19;108911;-60
2023/06/17 11:40:56;;;;;;;;;;;31.40;54.80;;;;;;7335238;19;114766;-60
2023/06/17 11:43:26;;;;;;;;;;;31.40;53.00;;;;;;7336584;19;109353;-60
2023/06/17 11:45:56;;;;;;;;;;;31.40;53.90;;;;;;7336053;19;109069;-60
2023/06/17 11:48:27;;;;;;;;;;;31.30;52.60;;;;;;7331769;19;109768;-60
2023/06/17 11:50:56;;;;;;;;;;;31.40;55.10;;;;;;7333278;19;111864;-60
2023/06/17 11:53:29;;;;;;;;;;;31.50;55.40;;;;;;7335087;19;109236;-61
2023/06/17 11:56:00;;;;;;;;;;;31.80;56.60;;;;;;7334310;19;109151;-60
2023/06/17 11:58:27;;;;;;;;;;;31.90;55.70;;;;;;7335365;19;108715;-60
2023/06/17 12:00:57;;;;;;;;;;;32.00;54.50;;;;;;7341024;19;109841;-60
2023/06/17 12:03:24;;;;;;;;;;;32.00;55.30;;;;;;7330568;19;110050;-60
2023/06/17 12:05:52;;;;;;;;;;;32.00;55.50;;;;;;7334709;19;109324;-60
2023/06/17 12:08:19;;;;;;;;;;;32.20;56.30;;;;;;7333107;19;110363;-60
2023/06/17 12:10:46;;;;;;;;;;;32.20;53.90;;;;;;7332438;19;109792;-60
2023/06/17 12:13:13;;;;;;;;;;;32.20;53.30;;;;;;7333742;19;108720;-60
2023/06/17 12:15:41;;;;;;;;;;;32.10;54.70;;;;;;7329578;19;109069;-60
2023/06/17 12:18:09;;;;;;;;;;;32.20;56.60;;;;;;7335188;19;108879;-60
2023/06/17 12:20:37;;;;;;;;;;;32.20;55.70;;;;;;7332468;19;109862;-60
2023/06/17 12:23:04;;;;;;;;;;;32.30;55.50;;;;;;7338931;19;109767;-60
2023/06/17 12:25:33;;;;;;;;;;;32.30;56.30;;;;;;7334927;19;108941;-60
2023/06/17 12:28:01;;;;;;;;;;;32.50;55.40;;;;;;7330255;19;109666;-60
2023/06/17 12:30:29;;;;;;;;;;;32.60;55.80;;;;;;7337193;19;108985;-60
2023/06/17 12:32:57;;;;;;;;;;;32.70;52.20;;;;;;7333891;19;108813;-61
2023/06/17 12:35:24;;;;;;;;;;;32.70;54.30;;;;;;7335998;19;109478;-60
2023/06/17 12:37:52;;;;;;;;;;;32.50;52.50;;;;;;7333788;19;109121;-60
2023/06/17 12:40:20;;;;;;;;;;;32.40;52.70;;;;;;7335647;19;109635;-60
2023/06/17 12:42:47;;;;;;;;;;;32.20;52.60;;;;;;7331715;19;109225;-59
2023/06/17 12:45:14;;;;;;;;;;;32.00;52.50;;;;;;7337503;19;108935;-60
2023/06/17 12:47:41;;;;;;;;;;;32.00;53.80;;;;;;7334704;19;110513;-61
2023/06/17 12:50:11;;;;;;;;;;;32.00;54.00;;;;;;7331205;19;110149;-60
2023/06/17 12:52:38;;;;;;;;;;;32.10;53.70;;;;;;7333197;19;108591;-60
2023/06/17 12:55:05;;;;;;;;;;;32.10;53.00;;;;;;7328997;19;109763;-60
2023/06/17 12:57:32;;;;;;;;;;;32.20;52.40;;;;;;7334903;19;109422;-60
2023/06/17 13:00:03;;;;;;;;;;;32.40;54.00;;;;;;7332661;19;113486;-59
2023/06/17 13:02:32;;;;;;;;;;;32.40;52.40;;;;;;7330235;19;109606;-60
2023/06/17 13:04:59;;;;;;;;;;;32.50;54.20;;;;;;7330472;19;111191;-60
2023/06/17 13:07:26;;;;;;;;;;;32.60;56.10;;;;;;7339797;19;108543;-60
2023/06/17 13:09:55;;;;;;;;;;;32.80;55.10;;;;;;7331444;19;108413;-60
2023/06/17 13:12:22;;;;;;;;;;;32.90;55.70;;;;;;7333857;19;108828;-61
2023/06/17 13:14:50;;;;;;;;;;;33.10;55.70;;;;;;7331126;19;109777;-59
2023/06/17 13:17:17;;;;;;;;;;;33.30;55.20;;;;;;7334629;19;109529;-60
2023/06/17 13:19:44;;;;;;;;;;;33.40;54.60;;;;;;7331784;19;109816;-60
2023/06/17 13:22:11;;;;;;;;;;;33.40;54.90;;;;;;7335171;19;109517;-61
2023/06/17 13:24:38;;;;;;;;;;;33.50;52.40;;;;;;7331083;19;110422;-61
2023/06/17 13:27:06;;;;;;;;;;;33.40;53.20;;;;;;7338980;19;108583;-61
2023/06/17 13:29:33;;;;;;;;;;;33.20;54.20;;;;;;7332756;19;109629;-61
2023/06/17 13:32:01;;;;;;;;;;;33.10;54.60;;;;;;7338423;19;110010;-60
2023/06/17 13:34:28;;;;;;;;;;;33.00;53.40;;;;;;7338630;19;109112;-60
2023/06/17 13:36:55;;;;;;;;;;;33.00;52.80;;;;;;7338189;19;108832;-60
2023/06/17 13:39:22;;;;;;;;;;;33.00;54.60;;;;;;7337839;19;108253;-60
2023/06/17 13:41:49;;;;;;;;;;;33.10;54.90;;;;;;7340004;19;109031;-60
2023/06/17 13:44:16;;;;;;;;;;;33.10;53.10;;;;;;7341016;19;108664;-60
2023/06/17 13:46:44;;;;;;;;;;;33.20;53.00;;;;;;7338537;19;108795;-60
2023/06/17 13:49:11;;;;;;;;;;;33.30;53.60;;;;;;7347110;19;109337;-61
2023/06/17 13:51:38;;;;;;;;;;;33.40;55.30;;;;;;7341228;19;110285;-60
2023/06/17 13:54:06;;;;;;;;;;;33.70;54.60;;;;;;7340280;19;111727;-60
2023/06/17 13:56:33;;;;;;;;;;;33.90;54.70;;;;;;7340994;19;109017;-60
2023/06/17 13:59:01;;;;;;;;;;;34.10;53.90;;;;;;7336993;19;109080;-60
2023/06/17 14:01:28;;;;;;;;;;;34.20;53.50;;;;;;7341465;19;110530;-60
2023/06/17 14:03:55;;;;;;;;;;;34.30;53.00;;;;;;7337382;19;108865;-61
2023/06/17 14:06:22;;;;;;;;;;;34.20;52.90;;;;;;7338841;19;108741;-60
2023/06/17 14:08:49;;;;;;;;;;;34.20;54.00;;;;;;7336993;19;109493;-60